createdAt,value
2022-08-08T00:01:15.684Z,5.40
2022-08-08T00:03:59.615Z,4.75
2022-08-08T00:06:47.538Z,5.93
2022-08-08T00:09:16.979Z,4.07
2022-08-08T00:12:10.760Z,5.55
2022-08-08T00:15:00.571Z,6.53
2022-08-08T00:18:03.947Z,6.20
2022-08-08T00:20:50.478Z,5.03
2022-08-08T00:23:43.531Z,4.78
2022-08-08T00:26:29.362Z,5.30
2022-08-08T00:29:45.153Z,5.65
2022-08-08T00:32:38.430Z,5.28
2022-08-08T00:35:21.023Z,6.65
2022-08-08T00:38:30.909Z,5.72
2022-08-08T00:41:54.580Z,4.50
2022-08-08T00:44:24.898Z,5.22
2022-08-08T00:47:36.919Z,5.63
2022-08-08T00:51:01.912Z,6.20
2022-08-08T00:53:57.281Z,4.95
2022-08-08T00:56:53.925Z,4.30
2022-08-08T00:59:43.861Z,4.80
2022-08-08T01:03:18.236Z,5.50
2022-08-08T01:06:00.930Z,5.22
2022-08-08T01:09:35.768Z,6.20
2022-08-08T01:12:17.671Z,5.32
2022-08-08T01:14:57.374Z,4.03
2022-08-08T01:18:50.784Z,4.95
2022-08-08T01:21:12.036Z,11.57
2022-08-08T01:24:05.998Z,6.38
2022-08-08T01:27:06.938Z,4.85
2022-08-08T01:29:59.828Z,5.15
2022-08-08T01:33:02.285Z,4.38
2022-08-08T01:36:04.629Z,8.00
2022-08-08T01:39:04.442Z,4.90
2022-08-08T01:41:34.063Z,5.75
2022-08-08T01:44:00.906Z,5.55
2022-08-08T01:46:58.333Z,7.80
2022-08-08T01:49:48.442Z,7.13
2022-08-08T01:55:15.069Z,6.03
2022-08-08T01:56:28.109Z,5.50
2022-08-08T01:59:38.181Z,5.43
2022-08-08T02:02:41.467Z,5.85
2022-08-08T02:05:33.561Z,5.88
2022-08-08T02:08:36.644Z,7.75
2022-08-08T02:11:23.183Z,7.97
2022-08-08T02:14:15.138Z,5.10
2022-08-08T02:16:56.983Z,6.68
2022-08-08T02:20:07.534Z,5.78
2022-08-08T02:23:16.365Z,5.95
2022-08-08T02:26:15.817Z,6.45
2022-08-08T02:28:58.178Z,6.93
2022-08-08T02:32:00.847Z,6.07
2022-08-08T02:35:07.518Z,7.97
2022-08-08T02:38:25.101Z,6.18
2022-08-08T02:41:57.887Z,6.15
2022-08-08T02:44:57.264Z,8.35
2022-08-08T02:48:02.988Z,7.43
2022-08-08T02:51:00.730Z,8.55
2022-08-08T02:53:47.338Z,7.72
2022-08-08T02:56:25.910Z,7.63
2022-08-08T02:59:37.129Z,9.95
2022-08-08T03:02:54.345Z,6.72
2022-08-08T03:05:46.789Z,7.30
2022-08-08T03:08:26.902Z,7.15
2022-08-08T03:11:47.572Z,7.43
2022-08-08T03:15:55.979Z,8.70
2022-08-08T03:17:39.787Z,9.32
2022-08-08T03:20:08.266Z,9.63
2022-08-08T03:22:47.083Z,6.82
2022-08-08T03:25:18.393Z,7.47
2022-08-08T03:27:56.320Z,7.75
2022-08-08T03:30:25.072Z,7.63
2022-08-08T03:33:56.085Z,7.85
2022-08-08T03:35:58.258Z,7.70
2022-08-08T03:38:54.600Z,6.25
2022-08-08T03:41:32.154Z,7.82
2022-08-08T03:43:59.714Z,10.63
2022-08-08T03:46:32.306Z,7.55
2022-08-08T03:49:26.596Z,8.30
2022-08-08T03:51:53.399Z,8.65
2022-08-08T03:54:51.939Z,9.57
2022-08-08T03:58:31.085Z,12.48
2022-08-08T04:00:11.145Z,7.75
2022-08-08T04:02:47.785Z,9.15
2022-08-08T04:05:19.560Z,8.25
2022-08-08T04:07:54.013Z,9.57
2022-08-08T04:10:20.708Z,9.45
2022-08-08T04:12:49.805Z,7.50
2022-08-08T04:15:16.520Z,13.48
2022-08-08T04:17:57.871Z,8.27
2022-08-08T04:20:28.647Z,9.30
2022-08-08T04:22:56.748Z,8.95
2022-08-08T04:25:29.820Z,9.27
2022-08-08T04:28:02.157Z,10.27
2022-08-08T04:30:44.831Z,8.07
2022-08-08T04:33:11.585Z,11.45
2022-08-08T04:35:41.810Z,9.40
2022-08-08T04:38:21.395Z,7.97
2022-08-08T04:40:53.338Z,8.52
2022-08-08T04:43:22.118Z,8.80
2022-08-08T04:45:50.204Z,7.60
2022-08-08T04:48:17.500Z,8.73
2022-08-08T04:50:48.705Z,9.20
2022-08-08T04:54:27.603Z,6.78
2022-08-08T04:56:04.151Z,9.93
2022-08-08T04:58:31.113Z,6.45
2022-08-08T05:00:59.764Z,6.88
2022-08-08T05:04:11.443Z,7.03
2022-08-08T05:06:25.927Z,8.50
2022-08-08T05:08:56.128Z,6.72
2022-08-08T05:11:29.010Z,6.20
2022-08-08T05:14:05.120Z,5.82
2022-08-08T05:16:53.072Z,7.68
2022-08-08T05:20:04.189Z,5.05
2022-08-08T05:22:08.114Z,7.07
2022-08-08T05:24:37.232Z,9.88
2022-08-08T05:27:04.714Z,7.18
2022-08-08T05:29:31.817Z,5.45
2022-08-08T05:32:06.202Z,6.47
2022-08-08T05:34:36.426Z,7.68
2022-08-08T05:37:07.487Z,7.28
2022-08-08T05:39:51.221Z,6.93
2022-08-08T05:42:25.566Z,5.78
2022-08-08T05:44:53.920Z,4.22
2022-08-08T05:47:23.946Z,5.70
2022-08-08T05:49:58.571Z,6.60
2022-08-08T05:52:33.935Z,8.90
2022-08-08T05:55:09.796Z,3.83
2022-08-08T05:58:05.625Z,5.78
2022-08-08T06:00:34.371Z,6.00
2022-08-08T06:06:01.304Z,4.30
2022-08-08T06:08:54.764Z,4.40
2022-08-08T06:11:22.478Z,7.57
2022-08-08T06:13:54.989Z,5.35
2022-08-08T06:16:27.751Z,4.03
2022-08-08T06:19:00.246Z,3.53
2022-08-08T06:21:48.412Z,4.03
2022-08-08T06:24:22.992Z,5.00
2022-08-08T06:27:04.315Z,5.07
2022-08-08T06:29:59.170Z,5.50
2022-08-08T06:32:32.056Z,3.92
2022-08-08T06:36:03.855Z,4.15
2022-08-08T06:37:57.630Z,4.80
2022-08-08T06:40:27.000Z,3.15
2022-08-08T06:43:09.528Z,5.40
2022-08-08T06:45:40.292Z,6.72
2022-08-08T06:48:07.219Z,6.78
2022-08-08T06:50:41.795Z,3.47
2022-08-08T06:53:16.993Z,5.20
2022-08-08T06:55:46.886Z,4.03
2022-08-08T06:58:14.399Z,5.55
2022-08-08T07:00:46.116Z,3.22
2022-08-08T07:03:52.183Z,3.90
2022-08-08T07:06:22.316Z,4.30
2022-08-08T07:11:51.310Z,4.05
2022-08-08T07:14:26.275Z,4.80
2022-08-08T07:17:09.060Z,5.67
2022-08-08T07:19:45.079Z,6.43
2022-08-08T07:22:22.187Z,5.75
2022-08-08T07:25:04.144Z,5.38
2022-08-08T07:28:00.793Z,4.35
2022-08-08T07:30:30.694Z,4.23
2022-08-08T07:32:59.536Z,5.80
2022-08-08T07:35:28.631Z,6.05
2022-08-08T07:38:09.865Z,4.80
2022-08-08T07:40:38.351Z,4.20
2022-08-08T07:43:09.358Z,4.50
2022-08-08T07:46:05.565Z,4.82
2022-08-08T07:48:24.203Z,4.50
2022-08-08T07:50:53.894Z,5.85
2022-08-08T07:54:02.308Z,5.25
2022-08-08T07:56:36.132Z,4.53
2022-08-08T07:59:08.941Z,6.00
2022-08-08T08:02:35.578Z,5.78
2022-08-08T08:04:32.574Z,6.38
2022-08-08T08:07:02.611Z,6.68
2022-08-08T08:09:36.916Z,5.88
2022-08-08T08:12:07.290Z,5.75
2022-08-08T08:14:41.871Z,4.93
2022-08-08T08:17:12.183Z,4.13
2022-08-08T08:19:45.754Z,6.22
2022-08-08T08:22:12.593Z,5.78
2022-08-08T08:24:42.969Z,5.53
2022-08-08T08:27:12.665Z,5.53
2022-08-08T08:29:39.701Z,8.73
2022-08-08T08:32:09.235Z,6.65
2022-08-08T08:34:48.458Z,5.47
2022-08-08T08:37:20.421Z,4.45
2022-08-08T08:40:00.119Z,3.60
2022-08-08T08:42:35.511Z,5.93
2022-08-08T08:45:10.346Z,3.83
2022-08-08T08:47:52.955Z,4.53
2022-08-08T08:50:35.058Z,7.90
2022-08-08T08:53:28.077Z,4.32
2022-08-08T08:56:01.943Z,4.25
2022-08-08T08:58:39.884Z,5.68
2022-08-08T09:01:13.600Z,4.28
2022-08-08T09:03:51.611Z,5.13
2022-08-08T09:06:28.495Z,5.93
2022-08-08T09:09:26.189Z,3.30
2022-08-08T09:12:02.355Z,3.38
2022-08-08T09:14:34.356Z,4.15
2022-08-08T09:17:07.064Z,5.47
2022-08-08T09:21:58.399Z,9.63
2022-08-08T09:22:27.196Z,5.55
2022-08-08T09:24:55.884Z,4.10
2022-08-08T09:27:55.847Z,6.10
2022-08-08T09:30:14.714Z,3.85
2022-08-08T09:32:50.274Z,4.47
2022-08-08T09:35:32.061Z,4.40
2022-08-08T09:38:05.838Z,4.80
2022-08-08T09:40:46.577Z,3.28
2022-08-08T09:44:03.035Z,4.55
2022-08-08T09:46:25.472Z,5.95
2022-08-08T09:49:18.520Z,5.28
2022-08-08T09:52:06.428Z,5.72
2022-08-08T09:54:59.436Z,5.57
2022-08-08T09:57:35.111Z,4.47
2022-08-08T10:00:37.413Z,5.82
2022-08-08T10:03:03.944Z,5.38
2022-08-08T10:05:35.122Z,4.30
2022-08-08T10:08:02.397Z,4.53
2022-08-08T10:10:38.167Z,5.35
2022-08-08T10:13:25.990Z,3.65
2022-08-08T10:16:02.033Z,3.08
2022-08-08T10:18:33.540Z,4.13
2022-08-08T10:21:08.254Z,5.05
2022-08-08T10:23:58.014Z,5.10
2022-08-08T10:26:52.416Z,6.60
2022-08-08T10:29:56.950Z,4.03
2022-08-08T10:32:38.223Z,5.95
2022-08-08T10:36:06.369Z,4.00
2022-08-08T10:38:05.139Z,4.55
2022-08-08T10:40:33.181Z,3.97
2022-08-08T10:43:04.582Z,3.63
2022-08-08T10:45:42.435Z,5.97
2022-08-08T10:48:57.737Z,2.85
2022-08-08T10:51:31.123Z,4.00
2022-08-08T10:54:07.234Z,3.42
2022-08-08T10:56:35.609Z,5.95
2022-08-08T10:59:12.183Z,3.40
2022-08-08T11:01:49.367Z,3.55
2022-08-08T11:04:38.662Z,2.92
2022-08-08T11:07:06.791Z,3.40
2022-08-08T11:09:34.460Z,3.30
2022-08-08T11:12:13.192Z,9.30
2022-08-08T11:14:57.099Z,3.35
2022-08-08T11:17:59.718Z,5.43
2022-08-08T11:22:41.670Z,4.88
2022-08-08T11:25:14.419Z,3.97
2022-08-08T11:27:44.635Z,4.07
2022-08-08T11:30:20.183Z,2.90
2022-08-08T11:32:48.382Z,4.75
2022-08-08T11:35:27.572Z,3.00
2022-08-08T11:38:38.625Z,3.08
2022-08-08T11:40:52.445Z,3.08
2022-08-08T11:43:21.764Z,2.92
2022-08-08T11:46:13.355Z,5.03
2022-08-08T11:48:39.282Z,2.97
2022-08-08T11:51:38.185Z,3.20
2022-08-08T11:53:55.273Z,2.47
2022-08-08T11:56:35.402Z,3.75
2022-08-08T11:59:10.289Z,2.00
2022-08-08T12:01:37.493Z,3.22
2022-08-08T12:04:05.746Z,2.45
2022-08-08T12:06:33.537Z,2.70
2022-08-08T12:09:08.264Z,3.42
2022-08-08T12:11:41.222Z,5.10
2022-08-08T12:14:10.904Z,2.75
2022-08-08T12:16:49.033Z,2.50
2022-08-08T12:19:15.827Z,5.50
2022-08-08T12:21:59.801Z,3.67
2022-08-08T12:24:29.771Z,3.35
2022-08-08T12:26:56.950Z,2.22
2022-08-08T12:29:42.174Z,3.03
2022-08-08T12:32:20.389Z,2.33
2022-08-08T12:35:13.262Z,2.25
2022-08-08T12:38:01.596Z,2.65
2022-08-08T12:40:56.500Z,3.35
2022-08-08T12:43:32.087Z,2.53
2022-08-08T12:46:02.923Z,3.38
2022-08-08T12:48:37.574Z,2.53
2022-08-08T12:51:07.618Z,2.47
2022-08-08T12:53:54.423Z,2.88
2022-08-08T12:56:39.106Z,3.15
2022-08-08T12:59:36.205Z,2.42
2022-08-08T13:02:09.389Z,3.00
2022-08-08T13:04:36.049Z,1.92
2022-08-08T13:07:06.848Z,2.50
2022-08-08T13:10:04.100Z,4.38
2022-08-08T13:12:36.002Z,1.63
2022-08-08T13:15:09.656Z,2.30
2022-08-08T13:18:07.824Z,2.38
2022-08-08T13:20:27.110Z,2.35
2022-08-08T13:23:30.071Z,2.13
2022-08-08T13:25:43.454Z,1.65
2022-08-08T13:28:09.888Z,3.38
2022-08-08T13:30:36.368Z,2.47
2022-08-08T13:33:04.181Z,1.67
2022-08-08T13:35:41.134Z,2.72
2022-08-08T13:38:13.108Z,1.77
2022-08-08T13:40:44.826Z,1.70
2022-08-08T13:43:12.392Z,2.60
2022-08-08T13:45:39.067Z,2.25
2022-08-08T13:48:14.621Z,2.50
2022-08-08T13:50:55.081Z,2.88
2022-08-08T13:53:34.007Z,11.35
2022-08-08T13:56:11.333Z,3.15
2022-08-08T14:01:32.778Z,2.92
2022-08-08T14:04:21.186Z,4.00
2022-08-08T14:06:48.677Z,3.58
2022-08-08T14:09:29.162Z,3.50
2022-08-08T14:12:00.517Z,3.25
2022-08-08T14:14:36.551Z,3.25
2022-08-08T14:17:07.649Z,2.92
2022-08-08T14:19:57.149Z,3.90
2022-08-08T14:22:37.251Z,2.22
2022-08-08T14:25:07.741Z,2.92
2022-08-08T14:27:40.336Z,4.38
2022-08-08T14:30:18.393Z,3.03
2022-08-08T14:32:46.815Z,2.80
2022-08-08T14:35:35.005Z,3.50
2022-08-08T14:38:09.555Z,2.30
2022-08-08T14:40:53.612Z,2.55
2022-08-08T14:44:01.987Z,3.53
2022-08-08T14:46:16.572Z,8.10
2022-08-08T14:48:57.057Z,2.38
2022-08-08T14:51:47.245Z,3.25
2022-08-08T14:54:14.131Z,3.72
2022-08-08T14:56:48.171Z,3.42
2022-08-08T14:59:22.593Z,4.45
2022-08-08T15:02:05.175Z,2.97
2022-08-08T15:04:35.111Z,2.70
2022-08-08T15:07:02.773Z,2.90
2022-08-08T15:09:30.986Z,3.75
2022-08-08T15:11:58.899Z,2.28
2022-08-08T15:14:26.797Z,2.42
2022-08-08T15:16:53.977Z,3.70
2022-08-08T15:19:21.196Z,2.53
2022-08-08T15:21:50.420Z,2.30
2022-08-08T15:24:17.052Z,2.58
2022-08-08T15:26:46.618Z,1.77
2022-08-08T15:29:19.182Z,2.20
2022-08-08T15:32:03.468Z,2.05
2022-08-08T15:34:36.505Z,2.65
2022-08-08T15:37:05.762Z,2.05
2022-08-08T15:39:37.614Z,2.25
2022-08-08T15:42:10.647Z,3.17
2022-08-08T15:44:42.058Z,2.60
2022-08-08T15:47:15.604Z,2.42
2022-08-08T15:49:47.872Z,4.10
2022-08-08T15:52:15.982Z,3.78
2022-08-08T15:54:46.193Z,2.28
2022-08-08T15:57:15.669Z,2.22
2022-08-08T16:00:06.907Z,2.92
2022-08-08T16:02:31.239Z,1.98
2022-08-08T16:04:59.974Z,2.72
2022-08-08T16:07:39.117Z,1.48
2022-08-08T16:13:03.013Z,1.23
2022-08-08T16:13:30.351Z,2.10
2022-08-08T16:15:59.215Z,2.10
2022-08-08T16:18:27.599Z,1.88
2022-08-08T16:21:00.508Z,3.00
2022-08-08T16:23:31.742Z,2.28
2022-08-08T16:26:03.863Z,1.73
2022-08-08T16:28:35.573Z,1.98
2022-08-08T16:31:04.653Z,1.67
2022-08-08T16:33:38.616Z,7.05
2022-08-08T16:36:08.934Z,2.42
2022-08-08T16:38:44.661Z,2.03
2022-08-08T16:41:20.679Z,1.92
2022-08-08T16:43:51.556Z,1.75
2022-08-08T16:46:38.872Z,2.33
2022-08-08T16:49:07.891Z,2.63
2022-08-08T16:55:03.606Z,2.15
2022-08-08T16:55:05.136Z,3.97
2022-08-08T16:57:40.713Z,4.47
2022-08-08T17:00:01.545Z,3.75
2022-08-08T17:02:39.434Z,2.60
2022-08-08T17:05:13.703Z,2.20
2022-08-08T17:07:40.933Z,3.35
2022-08-08T17:10:09.597Z,1.85
2022-08-08T17:12:36.458Z,2.00
2022-08-08T17:15:17.389Z,1.42
2022-08-08T17:18:02.488Z,1.45
2022-08-08T17:20:39.682Z,2.92
2022-08-08T17:26:05.123Z,1.98
2022-08-08T17:28:35.572Z,4.05
2022-08-08T17:31:39.507Z,3.40
2022-08-08T17:34:53.490Z,1.90
2022-08-08T17:36:37.864Z,1.40
2022-08-08T17:39:46.157Z,1.30
2022-08-08T17:42:08.774Z,2.10
2022-08-08T17:44:37.412Z,2.08
2022-08-08T17:47:06.374Z,3.00
2022-08-08T17:49:42.478Z,2.08
2022-08-08T17:52:10.083Z,2.30
2022-08-08T17:54:36.643Z,1.75
2022-08-08T17:57:03.246Z,3.50
2022-08-08T17:59:36.059Z,2.00
2022-08-08T18:02:18.745Z,2.58
2022-08-08T18:04:51.056Z,2.42
2022-08-08T18:08:02.735Z,2.70
2022-08-08T18:10:05.032Z,1.77
2022-08-08T18:12:31.504Z,2.50
2022-08-08T18:14:57.987Z,3.45
2022-08-08T18:17:28.517Z,2.17
2022-08-08T18:20:44.234Z,3.10
2022-08-08T18:22:51.094Z,3.47
2022-08-08T18:27:45.677Z,1.70
2022-08-08T18:30:13.423Z,3.47
2022-08-08T18:32:41.901Z,1.75
2022-08-08T18:35:15.514Z,2.60
2022-08-08T18:37:48.392Z,2.28
2022-08-08T18:40:15.389Z,1.67
2022-08-08T18:42:45.790Z,2.63
2022-08-08T18:45:45.014Z,4.23
2022-08-08T18:48:07.716Z,3.78
2022-08-08T18:50:39.495Z,3.72
2022-08-08T18:53:06.451Z,2.33
2022-08-08T18:55:33.874Z,2.53
2022-08-08T18:58:00.517Z,3.38
2022-08-08T19:00:27.038Z,2.28
2022-08-08T19:02:57.959Z,3.03
2022-08-08T19:05:44.060Z,4.85
2022-08-08T19:08:24.708Z,5.03
2022-08-08T19:10:59.697Z,3.03
2022-08-08T19:13:38.422Z,4.90
2022-08-08T19:16:19.308Z,2.47
2022-08-08T19:18:49.694Z,3.03
2022-08-08T19:21:23.069Z,4.53
2022-08-08T19:23:57.972Z,5.75
2022-08-08T19:26:30.804Z,2.00
2022-08-08T19:28:59.361Z,4.93
2022-08-08T19:31:31.761Z,2.00
2022-08-08T19:34:15.331Z,4.32
2022-08-08T19:36:51.904Z,4.10
2022-08-08T19:39:19.373Z,2.67
2022-08-08T19:41:46.127Z,2.25
2022-08-08T19:44:26.785Z,6.45
2022-08-08T19:49:36.620Z,2.92
2022-08-08T19:52:05.771Z,1.65
2022-08-08T19:54:32.294Z,1.95
2022-08-08T19:56:58.826Z,3.22
2022-08-08T19:59:30.924Z,2.30
2022-08-08T20:02:04.678Z,2.70
2022-08-08T20:04:33.229Z,3.55
2022-08-08T20:08:30.195Z,3.30
2022-08-08T20:09:55.711Z,3.45
2022-08-08T20:12:34.918Z,1.98
2022-08-08T20:15:14.530Z,4.97
2022-08-08T20:17:45.035Z,1.48
2022-08-08T20:20:18.998Z,2.72
2022-08-08T20:22:46.018Z,3.90
2022-08-08T20:25:20.421Z,2.28
2022-08-08T20:27:49.409Z,6.28
2022-08-08T20:30:52.715Z,2.40
2022-08-08T20:33:18.470Z,1.33
2022-08-08T20:35:58.707Z,5.95
2022-08-08T20:38:32.807Z,3.40
2022-08-08T20:41:12.207Z,1.50
2022-08-08T20:43:48.100Z,1.80
2022-08-08T20:46:16.542Z,2.88
2022-08-08T20:48:43.839Z,2.50
2022-08-08T20:51:10.689Z,2.20
2022-08-08T20:53:59.861Z,2.80
2022-08-08T20:56:35.540Z,2.10
2022-08-08T20:59:06.258Z,6.85
2022-08-08T21:01:44.399Z,2.92
2022-08-08T21:04:23.306Z,2.78
2022-08-08T21:06:53.033Z,2.05
2022-08-08T21:09:21.501Z,2.28
2022-08-08T21:11:52.097Z,3.67
2022-08-08T21:14:33.799Z,2.67
2022-08-08T21:17:06.107Z,2.35
2022-08-08T21:19:44.267Z,2.05
2022-08-08T21:22:13.795Z,2.45
2022-08-08T21:24:42.119Z,2.10
2022-08-08T21:28:05.081Z,2.08
2022-08-08T21:30:10.912Z,2.90
2022-08-08T21:32:44.227Z,3.20
2022-08-08T21:36:14.645Z,1.92
2022-08-08T21:38:03.987Z,3.95
2022-08-08T21:40:32.256Z,2.35
2022-08-08T21:42:59.273Z,2.70
2022-08-08T21:48:00.312Z,2.95
2022-08-08T21:50:49.537Z,2.60
2022-08-08T21:54:34.462Z,4.20
2022-08-08T21:56:26.046Z,3.47
2022-08-08T21:58:54.989Z,4.63
2022-08-08T22:01:27.869Z,6.00
2022-08-08T22:04:06.497Z,4.70
2022-08-08T22:06:33.328Z,4.40
2022-08-08T22:09:08.362Z,1.85
2022-08-08T22:11:59.565Z,4.22
2022-08-08T22:14:23.662Z,3.15
2022-08-08T22:16:51.157Z,4.32
2022-08-08T22:19:23.942Z,2.83
2022-08-08T22:21:51.535Z,2.13
2022-08-08T22:24:18.045Z,2.45
2022-08-08T22:27:02.037Z,3.03
2022-08-08T22:30:01.540Z,2.70
2022-08-08T22:32:18.014Z,3.00
2022-08-08T22:34:50.842Z,2.38
2022-08-08T22:37:48.924Z,4.20
2022-08-08T22:40:16.577Z,2.95
2022-08-08T22:42:47.425Z,3.75
2022-08-08T22:45:15.117Z,1.58
2022-08-08T22:47:47.428Z,2.35
2022-08-08T22:50:26.392Z,2.65
2022-08-08T22:54:28.117Z,3.00
2022-08-08T22:55:58.820Z,4.57
2022-08-08T22:58:33.159Z,5.70
2022-08-08T23:02:01.314Z,4.35
2022-08-08T23:03:55.996Z,2.47
2022-08-08T23:06:26.763Z,3.00
2022-08-08T23:09:00.049Z,3.47
2022-08-08T23:12:11.540Z,3.55
2022-08-08T23:14:20.741Z,4.13
2022-08-08T23:16:54.723Z,3.78
2022-08-08T23:19:27.404Z,2.58
2022-08-08T23:21:57.646Z,1.67
2022-08-08T23:24:24.262Z,3.53
2022-08-08T23:26:55.660Z,4.90
2022-08-08T23:29:23.742Z,6.20
2022-08-08T23:31:50.152Z,2.35
2022-08-08T23:34:19.695Z,3.28
2022-08-08T23:36:47.635Z,4.43
2022-08-08T23:39:15.523Z,2.38
2022-08-08T23:41:46.991Z,4.95
2022-08-08T23:44:16.907Z,3.72
2022-08-08T23:49:06.163Z,4.05
2022-08-08T23:49:32.944Z,8.07
2022-08-08T23:52:05.796Z,4.38
2022-08-08T23:54:41.759Z,3.43
2022-08-08T23:57:26.828Z,3.20
